Time;durP1;ratioP1;P1;durP2;ratioP2;P2;SDS_P1;SDS_P2;PMS_P1;PMS_P2;Temp;Humidity;BMP_temperature;BMP_pressure;BME280_temperature;BME280_humidity;BME280_pressure;Samples;Min_cycle;Max_cycle;Signal;HPM_P1;HPM_P2
2023/01/16 00:00:19;;;;;;;8.32;6.20;;;4.50;99.90;;;;;;5028381;28;20043;-63
2023/01/16 00:02:45;;;;;;;10.43;6.18;;;4.40;99.90;;;;;;5012543;28;20036;-65
2023/01/16 00:05:11;;;;;;;9.32;6.18;;;4.40;99.90;;;;;;5029944;28;20434;-64
2023/01/16 00:07:37;;;;;;;8.80;5.90;;;4.30;99.90;;;;;;4995031;28;20036;-64
2023/01/16 00:10:04;;;;;;;8.15;5.65;;;4.50;99.90;;;;;;5010609;28;20518;-64
2023/01/16 00:12:29;;;;;;;8.35;5.22;;;4.40;99.90;;;;;;5011777;28;20094;-64
2023/01/16 00:14:55;;;;;;;7.82;4.93;;;4.40;99.90;;;;;;4995569;28;20045;-64
2023/01/16 00:17:21;;;;;;;9.40;5.00;;;4.10;99.90;;;;;;4994747;28;20063;-64
2023/01/16 00:19:46;;;;;;;8.18;4.85;;;4.20;99.90;;;;;;4978772;28;20087;-65
2023/01/16 00:22:13;;;;;;;8.73;5.13;;;4.00;99.90;;;;;;5011434;28;20041;-63
2023/01/16 00:24:38;;;;;;;10.27;5.68;;;3.90;99.90;;;;;;5010613;28;20386;-65
2023/01/16 00:27:04;;;;;;;11.88;6.07;;;4.10;99.90;;;;;;5029680;28;20033;-65
2023/01/16 00:29:30;;;;;;;8.30;6.03;;;4.20;99.90;;;;;;4996898;28;20059;-64
2023/01/16 00:31:55;;;;;;;9.23;6.20;;;4.20;99.90;;;;;;4999610;28;20045;-64
2023/01/16 00:34:21;;;;;;;10.15;5.45;;;4.30;99.90;;;;;;5014356;28;20040;-64
2023/01/16 00:36:47;;;;;;;9.35;5.55;;;4.30;99.90;;;;;;4982212;28;20187;-65
2023/01/16 00:39:12;;;;;;;7.60;5.18;;;4.20;99.90;;;;;;5013539;28;20045;-64
2023/01/16 00:41:38;;;;;;;6.70;4.55;;;4.30;99.90;;;;;;4982110;28;20383;-64
2023/01/16 00:44:04;;;;;;;9.75;5.20;;;4.30;99.90;;;;;;4964552;28;20048;-64
2023/01/16 00:46:30;;;;;;;10.80;5.30;;;4.40;99.90;;;;;;5015102;28;20447;-63
2023/01/16 00:48:56;;;;;;;8.43;5.25;;;4.30;99.90;;;;;;5014873;28;20320;-64
2023/01/16 00:51:22;;;;;;;5.78;3.95;;;4.40;99.90;;;;;;5031809;28;20041;-63
2023/01/16 00:53:48;;;;;;;8.23;4.93;;;4.30;99.90;;;;;;5000963;28;20422;-63
2023/01/16 00:56:13;;;;;;;7.28;4.22;;;4.40;99.90;;;;;;5031185;28;20033;-64
2023/01/16 00:58:39;;;;;;;7.82;5.05;;;4.30;99.90;;;;;;5014077;28;20370;-63
2023/01/16 01:01:05;;;;;;;7.40;4.72;;;4.40;99.90;;;;;;5012525;28;20333;-65
2023/01/16 01:03:31;;;;;;;12.05;4.55;;;4.30;99.90;;;;;;5015196;28;20468;-64
2023/01/16 01:05:57;;;;;;;9.45;4.00;;;4.30;99.90;;;;;;4985435;28;20120;-64
2023/01/16 01:08:23;;;;;;;7.05;4.20;;;4.10;99.90;;;;;;5012703;28;20377;-63
2023/01/16 01:10:49;;;;;;;7.45;4.50;;;4.30;99.90;;;;;;4979483;28;20041;-64
2023/01/16 01:13:15;;;;;;;9.00;3.95;;;4.10;99.90;;;;;;5014031;28;20044;-64
2023/01/16 01:15:40;;;;;;;9.55;4.00;;;4.20;99.90;;;;;;5013991;28;20040;-64
2023/01/16 01:18:06;;;;;;;6.45;3.40;;;4.00;99.90;;;;;;5014161;28;20052;-64
2023/01/16 01:20:32;;;;;;;9.20;3.53;;;4.20;99.90;;;;;;5012700;28;20367;-64
2023/01/16 01:22:58;;;;;;;6.10;3.13;;;3.90;99.90;;;;;;5014786;28;20090;-64
2023/01/16 01:25:24;;;;;;;8.50;4.00;;;3.90;99.90;;;;;;4996521;28;20168;-63
2023/01/16 01:27:53;;;;;;;7.97;3.80;;;3.90;99.90;;;;;;4981092;28;20155;-64
2023/01/16 01:30:19;;;;;;;5.60;2.95;;;3.80;99.90;;;;;;4996512;28;20080;-64
2023/01/16 01:32:44;;;;;;;5.68;3.20;;;3.80;99.90;;;;;;5031678;28;20452;-63
2023/01/16 01:35:10;;;;;;;9.93;3.22;;;3.60;99.90;;;;;;4985466;28;20206;-64
2023/01/16 01:37:36;;;;;;;6.95;3.47;;;3.40;99.90;;;;;;5001303;28;20334;-64
2023/01/16 01:40:04;;;;;;;7.63;3.78;;;3.30;99.90;;;;;;5013057;28;20051;-64
2023/01/16 01:42:42;;;;;;;9.13;3.42;;;3.20;99.90;;;;;;5013023;28;20591;-64
2023/01/16 01:45:29;;;;;;;8.43;3.05;;;3.20;99.90;;;;;;5013778;28;20037;-64
2023/01/16 01:48:04;;;;;;;7.30;3.05;;;3.30;99.90;;;;;;5030585;28;20515;-64
2023/01/16 01:50:43;;;;;;;10.23;3.22;;;3.10;99.90;;;;;;5013483;28;20284;-65
2023/01/16 01:53:19;;;;;;;7.53;3.00;;;3.40;99.90;;;;;;5013276;28;20055;-63
2023/01/16 01:55:47;;;;;;;10.15;3.60;;;3.50;99.90;;;;;;5012107;28;20045;-63
2023/01/16 01:58:20;;;;;;;8.20;2.67;;;3.30;99.90;;;;;;5030753;28;20047;-64
2023/01/16 02:00:48;;;;;;;8.02;2.92;;;3.60;99.90;;;;;;5030079;28;20419;-64
2023/01/16 02:03:25;;;;;;;8.52;2.78;;;3.50;99.90;;;;;;5031416;28;20037;-64
2023/01/16 02:05:55;;;;;;;8.07;3.22;;;3.50;99.90;;;;;;4998917;28;20048;-63
2023/01/16 02:08:26;;;;;;;6.40;3.33;;;3.50;99.90;;;;;;4997662;28;20262;-63
2023/01/16 02:10:58;;;;;;;9.05;4.00;;;3.50;99.90;;;;;;5034195;28;20044;-65
2023/01/16 02:13:24;;;;;;;12.77;4.72;;;3.70;99.90;;;;;;5015928;28;20048;-64
2023/01/16 02:21:23;;;;;;;13.98;7.50;;;3.40;99.90;;;;;;5032519;28;20041;-63
2023/01/16 02:24:27;;;;;;;10.38;7.30;;;3.70;99.90;;;;;;5013473;28;20087;-64
2023/01/16 02:27:34;;;;;;;12.20;7.50;;;3.50;99.90;;;;;;5005521;28;20170;-63
2023/01/16 02:30:15;;;;;;;16.02;7.57;;;3.60;99.90;;;;;;5032224;28;20045;-63
2023/01/16 02:32:46;;;;;;;12.23;6.93;;;3.60;99.90;;;;;;5013773;28;20041;-63
2023/01/16 02:35:18;;;;;;;12.00;6.90;;;3.60;99.90;;;;;;5014462;28;20068;-63
2023/01/16 02:37:55;;;;;;;11.30;6.35;;;3.60;99.90;;;;;;4997980;28;20032;-64
2023/01/16 02:40:24;;;;;;;10.40;6.30;;;3.60;99.90;;;;;;5013287;28;20652;-63
2023/01/16 02:42:56;;;;;;;9.95;5.63;;;3.90;99.90;;;;;;5005599;28;20337;-62
2023/01/16 02:45:28;;;;;;;11.70;5.72;;;3.80;99.90;;;;;;5032138;28;20417;-63
2023/01/16 02:48:08;;;;;;;9.98;4.65;;;3.60;99.90;;;;;;5029866;28;20107;-63
2023/01/16 02:50:53;;;;;;;8.00;4.35;;;3.70;99.90;;;;;;5031531;28;20464;-62
2023/01/16 02:53:35;;;;;;;9.77;4.07;;;3.80;99.90;;;;;;5030559;28;20241;-62
2023/01/16 02:56:08;;;;;;;9.68;4.88;;;3.60;99.90;;;;;;5014211;28;20045;-63
2023/01/16 02:58:41;;;;;;;7.22;3.83;;;3.70;99.90;;;;;;5012608;28;20048;-63
2023/01/16 03:01:07;;;;;;;9.10;3.92;;;3.90;99.90;;;;;;5031545;28;20044;-62
2023/01/16 03:03:55;;;;;;;11.07;4.25;;;3.70;99.90;;;;;;5012231;28;20406;-64
2023/01/16 03:06:33;;;;;;;12.27;5.05;;;3.70;99.90;;;;;;5030642;28;20059;-63
2023/01/16 03:09:15;;;;;;;10.52;4.18;;;3.90;99.90;;;;;;5013305;28;20344;-63
2023/01/16 03:11:52;;;;;;;10.10;4.07;;;3.80;99.90;;;;;;5013238;28;20106;-63
2023/01/16 03:14:36;;;;;;;11.20;4.40;;;3.90;99.90;;;;;;5030848;28;20474;-64
2023/01/16 03:17:07;;;;;;;;;;;3.90;99.90;;;;;;4990280;28;20479;-62
2023/01/16 03:19:42;;;;;;;9.57;3.33;;;3.80;99.90;;;;;;4986957;28;20662;-63
2023/01/16 03:22:11;;;;;;;12.88;3.55;;;3.90;99.90;;;;;;5012479;28;20060;-63
2023/01/16 03:25:09;;;;;;;10.18;3.40;;;3.90;99.90;;;;;;5012748;28;20041;-64
2023/01/16 03:27:58;;;;;;;8.40;3.00;;;3.90;99.90;;;;;;5012409;28;20574;-64
2023/01/16 03:30:44;;;;;;;7.25;2.75;;;3.90;99.90;;;;;;5030189;28;20154;-63
2023/01/16 03:33:42;;;;;;;7.97;2.47;;;3.80;99.90;;;;;;5013000;28;20116;-64
2023/01/16 03:36:14;;;;;;;10.05;2.58;;;4.00;99.90;;;;;;5030148;28;20053;-63
2023/01/16 03:38:42;;;;;;;8.50;2.42;;;3.80;99.90;;;;;;5012546;28;20183;-64
2023/01/16 03:41:12;;;;;;;9.57;2.30;;;4.10;99.90;;;;;;5012878;28;20458;-64
2023/01/16 03:43:38;;;;;;;8.75;2.22;;;4.10;99.90;;;;;;5012466;28;20037;-65
2023/01/16 03:46:15;;;;;;;9.38;2.08;;;3.90;99.90;;;;;;5030880;28;20430;-64
2023/01/16 03:48:47;;;;;;;9.63;1.98;;;4.10;99.90;;;;;;5012731;28;20102;-63
2023/01/16 03:51:22;;;;;;;7.63;1.65;;;3.90;99.90;;;;;;5012463;28;20049;-64
2023/01/16 03:54:06;;;;;;;7.82;1.55;;;3.90;99.90;;;;;;5011926;28;20045;-62
2023/01/16 03:56:35;;;;;;;9.07;2.00;;;3.90;99.90;;;;;;5028886;28;20045;-63
2023/01/16 03:59:01;;;;;;;9.27;1.60;;;3.80;99.90;;;;;;5012622;28;20033;-65
2023/01/16 04:01:53;;;;;;;12.90;1.80;;;3.90;99.90;;;;;;5011375;28;20052;-64
2023/01/16 04:04:24;;;;;;;9.98;1.67;;;3.90;99.90;;;;;;5033997;28;20376;-64
2023/01/16 04:07:09;;;;;;;7.50;1.38;;;4.10;99.90;;;;;;5015563;28;20148;-65
2023/01/16 04:09:45;;;;;;;5.70;1.27;;;4.00;99.90;;;;;;5016773;28;20348;-64
2023/01/16 04:12:14;;;;;;;9.98;1.30;;;4.10;99.90;;;;;;5032572;28;20037;-64
2023/01/16 04:14:42;;;;;;;5.30;1.40;;;4.10;99.90;;;;;;5015941;28;20132;-63
2023/01/16 04:17:08;;;;;;;7.22;1.55;;;4.20;99.90;;;;;;5016735;28;20117;-64
2023/01/16 04:19:36;;;;;;;6.68;1.83;;;4.10;99.90;;;;;;5016190;28;20049;-63
2023/01/16 04:22:06;;;;;;;6.72;1.85;;;4.20;99.90;;;;;;5014922;28;20136;-64
2023/01/16 04:24:33;;;;;;;11.13;2.38;;;4.20;99.90;;;;;;5033619;28;20477;-65
2023/01/16 04:26:59;;;;;;;8.10;1.73;;;4.30;99.90;;;;;;4999935;28;20569;-64
2023/01/16 04:29:25;;;;;;;4.80;1.63;;;4.30;99.90;;;;;;5016744;28;20348;-65
2023/01/16 04:31:51;;;;;;;6.90;2.40;;;4.10;99.90;;;;;;4999956;28;20426;-63
2023/01/16 04:34:17;;;;;;;5.07;2.25;;;4.30;99.90;;;;;;5015983;28;20292;-63
2023/01/16 04:36:43;;;;;;;9.10;2.38;;;4.30;99.90;;;;;;4999498;28;20132;-64
2023/01/16 04:39:08;;;;;;;6.78;2.67;;;4.20;99.90;;;;;;4999306;28;20049;-64
2023/01/16 04:41:37;;;;;;;10.60;2.78;;;4.30;99.90;;;;;;5034488;28;20280;-65
2023/01/16 04:44:08;;;;;;;6.60;2.78;;;4.20;99.90;;;;;;5016055;28;20041;-65
2023/01/16 04:46:34;;;;;;;6.75;2.85;;;4.20;99.90;;;;;;4998797;28;20068;-64
2023/01/16 04:49:00;;;;;;;8.38;3.13;;;4.30;99.90;;;;;;5014863;28;20080;-63
2023/01/16 04:51:25;;;;;;;8.57;3.10;;;4.30;99.90;;;;;;5016540;28;20179;-64
2023/01/16 04:53:51;;;;;;;5.20;3.30;;;4.20;99.90;;;;;;5034712;28;20040;-64
2023/01/16 04:56:17;;;;;;;8.80;4.07;;;4.10;99.90;;;;;;5016252;28;20442;-64
2023/01/16 04:58:43;;;;;;;8.40;3.90;;;4.30;99.90;;;;;;5009835;28;20127;-64
2023/01/16 05:01:08;;;;;;;9.95;4.20;;;4.30;99.90;;;;;;5033776;28;20072;-64
2023/01/16 05:03:34;;;;;;;9.63;3.92;;;4.20;99.90;;;;;;4999176;28;20200;-64
2023/01/16 05:06:00;;;;;;;6.78;3.97;;;4.40;99.90;;;;;;5034868;28;20036;-64
2023/01/16 05:08:27;;;;;;;7.57;3.58;;;4.40;99.90;;;;;;5033873;28;20255;-64
2023/01/16 05:10:54;;;;;;;8.77;4.47;;;4.20;99.90;;;;;;5016686;28;20459;-64
2023/01/16 05:13:20;;;;;;;8.57;4.40;;;4.30;99.90;;;;;;5033411;28;20269;-64
2023/01/16 05:15:46;;;;;;;8.65;4.63;;;4.30;99.90;;;;;;4969294;28;20068;-64
2023/01/16 05:18:12;;;;;;;10.43;4.40;;;4.20;99.90;;;;;;5016295;28;20074;-64
2023/01/16 05:20:38;;;;;;;12.80;4.65;;;3.90;99.90;;;;;;5034517;28;20049;-64
2023/01/16 05:23:04;;;;;;;7.03;3.83;;;3.80;99.90;;;;;;5015324;28;20044;-64
2023/01/16 05:25:30;;;;;;;8.82;4.40;;;3.70;99.90;;;;;;5015597;28;20037;-63
2023/01/16 05:27:56;;;;;;;8.43;4.32;;;3.90;99.90;;;;;;5034198;28;20037;-64
2023/01/16 05:30:21;;;;;;;8.90;4.57;;;3.80;99.90;;;;;;5015713;28;20071;-63
2023/01/16 05:32:47;;;;;;;9.38;4.57;;;3.50;99.90;;;;;;5033871;28;20106;-63
2023/01/16 05:35:14;;;;;;;8.10;4.80;;;3.40;99.90;;;;;;5015900;28;20037;-63
2023/01/16 05:37:40;;;;;;;10.80;4.65;;;3.50;99.90;;;;;;5014832;28;20123;-63
2023/01/16 05:40:06;;;;;;;8.10;5.30;;;3.50;99.90;;;;;;4999634;28;20533;-64
2023/01/16 05:42:31;;;;;;;7.57;5.32;;;3.20;99.90;;;;;;4999646;28;20045;-65
2023/01/16 05:44:57;;;;;;;10.30;5.18;;;3.40;99.90;;;;;;5034438;28;20943;-63
2023/01/16 05:47:23;;;;;;;8.40;5.30;;;3.50;99.90;;;;;;5014055;28;20209;-63
2023/01/16 05:49:48;;;;;;;11.27;5.82;;;3.60;99.90;;;;;;5014510;28;20493;-63
2023/01/16 05:52:14;;;;;;;11.60;5.82;;;3.60;99.90;;;;;;5033053;28;20049;-63
2023/01/16 05:54:40;;;;;;;9.02;5.25;;;3.50;99.90;;;;;;5015304;28;20102;-64
2023/01/16 05:57:06;;;;;;;8.60;5.68;;;3.80;99.90;;;;;;5015771;28;20041;-63
2023/01/16 05:59:31;;;;;;;12.50;5.80;;;3.80;99.90;;;;;;4998810;28;20071;-64
2023/01/16 06:01:58;;;;;;;8.02;5.60;;;3.70;99.90;;;;;;4998325;28;20052;-64
2023/01/16 06:04:24;;;;;;;12.60;6.85;;;3.70;99.90;;;;;;5032396;28;20087;-63
2023/01/16 06:06:50;;;;;;;11.00;7.20;;;3.60;99.90;;;;;;5031390;28;20045;-63
2023/01/16 06:09:15;;;;;;;12.75;7.40;;;3.60;99.90;;;;;;5032021;28;20590;-63
2023/01/16 06:11:41;;;;;;;14.85;8.00;;;3.70;99.90;;;;;;5033452;28;20041;-63
2023/01/16 06:14:07;;;;;;;14.98;9.10;;;3.60;99.90;;;;;;4998880;28;20088;-63
2023/01/16 06:16:34;;;;;;;16.90;9.57;;;3.60;99.90;;;;;;5031222;28;20087;-64
2023/01/16 06:19:01;;;;;;;15.93;10.55;;;3.40;99.90;;;;;;5014515;28;20696;-63
2023/01/16 06:21:27;;;;;;;18.38;11.60;;;3.50;99.90;;;;;;4996818;28;20475;-64
2023/01/16 06:23:52;;;;;;;18.30;11.57;;;3.60;99.90;;;;;;5032296;28;20049;-63
2023/01/16 06:26:19;;;;;;;19.55;13.63;;;3.40;99.90;;;;;;5031886;28;20040;-64
2023/01/16 06:28:45;;;;;;;19.60;13.57;;;3.50;99.90;;;;;;5012918;28;20104;-63
2023/01/16 06:31:11;;;;;;;18.45;14.13;;;3.50;99.90;;;;;;5013499;28;20127;-63
2023/01/16 06:33:37;;;;;;;15.57;13.45;;;3.50;99.90;;;;;;5011860;28;20633;-63
2023/01/16 06:36:04;;;;;;;19.77;14.40;;;3.40;99.90;;;;;;5013782;28;20365;-64
2023/01/16 06:38:29;;;;;;;20.75;14.27;;;3.20;99.90;;;;;;5013535;28;20240;-64
2023/01/16 06:40:58;;;;;;;18.92;11.98;;;3.10;99.90;;;;;;5013168;28;20056;-65
2023/01/16 06:43:25;;;;;;;17.35;12.20;;;3.20;99.90;;;;;;4998513;28;20111;-65
2023/01/16 06:45:51;;;;;;;14.30;11.27;;;3.20;99.90;;;;;;5014252;28;20402;-63
2023/01/16 06:48:17;;;;;;;18.70;11.43;;;3.50;99.90;;;;;;5013334;28;20813;-65
2023/01/16 06:50:43;;;;;;;18.45;10.75;;;3.70;99.90;;;;;;5012007;28;20040;-64
2023/01/16 06:53:08;;;;;;;19.10;12.57;;;3.80;99.90;;;;;;5031187;28;20197;-62
2023/01/16 06:55:34;;;;;;;17.10;13.25;;;3.70;99.90;;;;;;5032801;28;20060;-63
2023/01/16 06:58:00;;;;;;;20.08;14.60;;;3.80;99.90;;;;;;5032422;28;20045;-63
2023/01/16 07:00:25;;;;;;;21.80;14.00;;;3.90;99.90;;;;;;5031276;28;20081;-63
2023/01/16 07:02:54;;;;;;;18.98;13.65;;;3.80;99.90;;;;;;5030052;28;20360;-62
2023/01/16 07:05:21;;;;;;;21.05;14.57;;;3.60;99.90;;;;;;5031605;28;20053;-63
2023/01/16 07:07:48;;;;;;;22.33;17.33;;;3.80;99.90;;;;;;5033125;28;20116;-63
2023/01/16 07:10:14;;;;;;;26.67;17.05;;;3.70;99.90;;;;;;4997329;28;20120;-62
2023/01/16 07:12:39;;;;;;;23.58;16.70;;;3.80;99.90;;;;;;5013773;28;20502;-64
2023/01/16 07:23:31;;;;;;;21.02;13.85;;;3.50;99.90;;;;;;4990383;28;20587;-64
2023/01/16 07:26:00;;;;;;;16.55;12.63;;;3.50;99.90;;;;;;5014119;28;20045;-64
2023/01/16 07:28:27;;;;;;;23.90;12.32;;;3.50;99.90;;;;;;5012882;28;20068;-64
2023/01/16 07:30:55;;;;;;;17.10;11.30;;;3.30;99.90;;;;;;5013082;28;20211;-64
2023/01/16 07:33:21;;;;;;;13.40;10.13;;;3.30;99.90;;;;;;5012360;28;20479;-64
2023/01/16 07:35:46;;;;;;;18.38;10.85;;;3.40;99.90;;;;;;5012362;28;20056;-64
2023/01/16 07:38:12;;;;;;;15.93;10.80;;;3.50;99.90;;;;;;5012095;28;20045;-64
2023/01/16 07:40:38;;;;;;;16.55;11.15;;;3.20;99.90;;;;;;5013411;28;20145;-64
2023/01/16 07:43:03;;;;;;;21.80;10.38;;;3.30;99.90;;;;;;5013560;28;20296;-62
2023/01/16 07:45:29;;;;;;;17.88;11.98;;;3.10;99.90;;;;;;5033373;28;20049;-63
2023/01/16 07:47:55;;;;;;;18.20;11.13;;;3.30;99.90;;;;;;5032830;28;20044;-63
2023/01/16 07:50:21;;;;;;;17.92;11.80;;;3.10;99.90;;;;;;4998522;28;20049;-63
2023/01/16 07:52:46;;;;;;;16.58;11.27;;;3.10;99.90;;;;;;5015080;28;20033;-63
2023/01/16 07:55:13;;;;;;;20.27;11.80;;;3.10;99.90;;;;;;5033542;28;20048;-63
2023/01/16 07:57:39;;;;;;;17.92;11.30;;;3.20;99.90;;;;;;5033192;28;20190;-63
2023/01/16 08:00:08;;;;;;;17.40;10.45;;;3.20;99.90;;;;;;5031979;28;20036;-62
2023/01/16 08:02:34;;;;;;;19.02;10.48;;;3.40;99.90;;;;;;5029565;28;20056;-64
2023/01/16 08:05:00;;;;;;;15.20;10.63;;;3.30;99.90;;;;;;5032058;28;20033;-63
2023/01/16 08:07:25;;;;;;;13.75;9.85;;;3.30;99.90;;;;;;5012773;28;20052;-63
2023/01/16 08:09:51;;;;;;;17.15;9.82;;;3.30;99.90;;;;;;5032548;28;20127;-62
2023/01/16 08:12:17;;;;;;;16.55;8.75;;;3.40;99.90;;;;;;5030838;28;20080;-63
2023/01/16 08:14:42;;;;;;;16.10;9.95;;;3.30;99.90;;;;;;5012605;28;20128;-63
2023/01/16 08:17:08;;;;;;;18.40;9.90;;;3.30;99.90;;;;;;5029740;28;20041;-63
2023/01/16 08:19:34;;;;;;;18.35;10.25;;;3.40;99.90;;;;;;4996504;28;20242;-63
2023/01/16 08:21:59;;;;;;;17.50;10.23;;;3.50;99.90;;;;;;5013098;28;20048;-64
2023/01/16 08:24:25;;;;;;;23.20;11.30;;;3.60;99.90;;;;;;5030702;28;20025;-63
2023/01/16 08:26:51;;;;;;;15.65;10.82;;;3.70;99.90;;;;;;5031392;28;20081;-63
2023/01/16 08:29:17;;;;;;;22.35;10.88;;;3.70;99.90;;;;;;5009052;28;20052;-62
2023/01/16 08:31:43;;;;;;;19.48;10.27;;;3.70;99.90;;;;;;5010087;28;20427;-63
2023/01/16 08:34:09;;;;;;;19.25;10.65;;;3.70;99.90;;;;;;5010891;28;20513;-63
2023/01/16 08:36:35;;;;;;;21.38;11.13;;;3.70;99.90;;;;;;5010449;28;20049;-65
2023/01/16 08:39:01;;;;;;;15.30;9.48;;;3.60;99.90;;;;;;5010708;28;20056;-63
2023/01/16 08:52:36;;;;;;;15.23;8.38;;;3.80;99.90;;;;;;5013156;28;20072;-65
2023/01/16 08:55:03;;;;;;;12.68;8.35;;;3.70;99.90;;;;;;5012022;28;20057;-63
2023/01/16 08:57:29;;;;;;;15.35;8.32;;;3.80;99.90;;;;;;5014055;28;20523;-64
2023/01/16 08:59:56;;;;;;;15.95;7.63;;;3.90;99.90;;;;;;5011803;28;20129;-63
2023/01/16 09:02:23;;;;;;;14.48;8.45;;;3.90;99.90;;;;;;5012846;28;20274;-63
2023/01/16 09:04:48;;;;;;;23.10;9.15;;;3.90;99.90;;;;;;5014580;28;20033;-63
2023/01/16 09:07:15;;;;;;;15.18;8.82;;;4.00;99.90;;;;;;5014126;28;20069;-62
2023/01/16 09:09:41;;;;;;;16.45;7.45;;;4.00;99.90;;;;;;5014259;28;20663;-62
2023/01/16 09:14:56;;;;;;;12.23;6.35;;;4.10;99.90;;;;;;5014592;28;20050;-63
2023/01/16 09:17:23;;;;;;;17.02;8.20;;;4.10;99.90;;;;;;5012608;28;20060;-64
2023/01/16 09:19:49;;;;;;;11.85;4.90;;;4.10;99.90;;;;;;5014892;28;20684;-63
2023/01/16 09:22:14;;;;;;;11.02;6.90;;;4.10;99.90;;;;;;5015420;28;20228;-63
2023/01/16 09:24:40;;;;;;;9.63;5.20;;;4.20;99.90;;;;;;5015948;28;20191;-63
2023/01/16 09:27:06;;;;;;;16.23;6.72;;;4.10;99.90;;;;;;5016319;28;20529;-65
2023/01/16 09:29:32;;;;;;;15.93;6.88;;;4.00;99.90;;;;;;5024971;28;20498;-64
2023/01/16 09:31:58;;;;;;;18.90;8.82;;;4.10;99.90;;;;;;5017900;28;20045;-66
2023/01/16 09:34:24;;;;;;;11.27;5.75;;;4.10;99.90;;;;;;5016878;28;20338;-64
2023/01/16 09:36:50;;;;;;;21.02;10.05;;;4.10;99.90;;;;;;5016773;28;20499;-64
2023/01/16 09:39:16;;;;;;;20.35;10.05;;;4.20;99.90;;;;;;5035141;28;20234;-63
2023/01/16 09:44:50;;;;;;;19.40;8.23;;;4.20;99.90;;;;;;5034853;28;20403;-64
2023/01/16 09:47:17;;;;;;;15.10;7.45;;;4.10;99.90;;;;;;5000891;28;20048;-64
2023/01/16 09:49:59;;;;;;;16.75;8.75;;;4.20;99.90;;;;;;5016259;28;20808;-64
2023/01/16 09:58:36;;;;;;;14.10;6.88;;;4.30;99.90;;;;;;5015076;28;20059;-64
2023/01/16 10:01:13;;;;;;;12.13;6.45;;;4.30;99.90;;;;;;5030283;28;20334;-64
2023/01/16 10:03:42;;;;;;;9.38;4.78;;;4.20;99.90;;;;;;5012987;28;20045;-65
2023/01/16 10:06:29;;;;;;;15.95;6.72;;;4.20;99.90;;;;;;5030848;28;20406;-64
2023/01/16 10:09:04;;;;;;;11.45;5.22;;;4.30;99.90;;;;;;4996575;28;20041;-64
2023/01/16 10:11:45;;;;;;;4.15;3.08;;;4.30;14.80;;;;;;5032559;28;20079;-64
2023/01/16 10:14:28;;;;;;;8.80;3.88;;;4.20;89.70;;;;;;5028943;28;20045;-64
2023/01/16 10:17:25;;;;;;;10.57;5.43;;;4.20;1.00;;;;;;5031209;28;20114;-65
2023/01/16 10:20:28;;;;;;;13.20;6.20;;;4.20;3.80;;;;;;5012023;28;20045;-64
2023/01/16 10:22:54;;;;;;;13.75;7.05;;;4.30;1.00;;;;;;5013759;28;20091;-65
2023/01/16 10:25:31;;;;;;;12.65;5.57;;;4.20;1.00;;;;;;5031882;28;20135;-65
2023/01/16 10:28:27;;;;;;;11.82;5.10;;;4.30;1.00;;;;;;5016714;28;20162;-64
2023/01/16 10:31:03;;;;;;;11.98;5.45;;;4.30;11.40;;;;;;5014518;28;20061;-63
2023/01/16 10:33:47;;;;;;;15.60;8.63;;;4.20;1.00;;;;;;5035048;28;20130;-64
2023/01/16 10:36:17;;;;;;;14.65;8.60;;;4.20;1.00;;;;;;5017031;28;20075;-62
2023/01/16 10:38:54;;;;;;;13.88;7.03;;;4.20;1.00;;;;;;5034842;28;20045;-63
2023/01/16 10:49:47;;;;;;;10.18;3.33;;;4.30;1.00;;;;;;5016314;28;20796;-63
2023/01/16 10:52:13;;;;;;;14.70;6.82;;;4.30;1.00;;;;;;5032871;28;20110;-62
2023/01/16 10:54:39;;;;;;;11.55;3.50;;;4.30;1.00;;;;;;5033207;28;20052;-63
2023/01/16 10:57:18;;;;;;;13.90;5.75;;;4.30;1.00;;;;;;5031889;28;20510;-64
2023/01/16 10:59:46;;;;;;;8.75;3.42;;;4.20;1.00;;;;;;5033472;28;20071;-63
2023/01/16 11:02:32;;;;;;;12.30;4.80;;;4.20;1.00;;;;;;4997802;28;20545;-63
2023/01/16 11:04:58;;;;;;;8.82;3.72;;;4.30;1.00;;;;;;5032180;28;20580;-62
2023/01/16 11:07:28;;;;;;;9.52;3.85;;;4.40;1.00;;;;;;5014960;28;20123;-63
2023/01/16 11:09:53;;;;;;;13.45;5.18;;;4.30;1.00;;;;;;5014495;28;20037;-63
2023/01/16 11:18:31;;;;;;;8.35;2.35;;;4.20;1.00;;;;;;5013328;28;20083;-64
2023/01/16 11:21:12;;;;;;;6.95;2.13;;;4.20;1.00;;;;;;5013637;28;20052;-64
2023/01/16 11:23:41;;;;;;;5.47;1.48;;;4.20;1.00;;;;;;5030228;28;20064;-64
2023/01/16 11:26:07;;;;;;;9.32;1.90;;;4.10;1.00;;;;;;5013135;28;20047;-65
2023/01/16 11:28:35;;;;;;;5.97;1.35;;;4.00;1.00;;;;;;5032525;28;20548;-64
2023/01/16 11:31:22;;;;;;;3.08;1.02;;;4.00;1.00;;;;;;5029928;28;20130;-63
2023/01/16 11:33:57;;;;;;;5.18;1.30;;;3.80;12.40;;;;;;5031850;28;20112;-64
2023/01/16 11:36:24;;;;;;;2.33;0.70;;;3.80;33.10;;;;;;5013167;28;20041;-65
2023/01/16 11:38:51;;;;;;;4.32;1.30;;;3.60;49.50;;;;;;5030951;28;20674;-64
2023/01/16 11:41:29;;;;;;;3.92;1.17;;;3.70;76.20;;;;;;4997374;28;20581;-64
2023/01/16 11:47:03;;;;;;;1.45;0.32;;;3.70;99.90;;;;;;5013183;28;20080;-64
2023/01/16 11:49:40;;;;;;;4.50;1.35;;;3.60;99.90;;;;;;5031806;28;20045;-64
2023/01/16 11:52:26;;;;;;;6.05;1.10;;;3.70;99.90;;;;;;5031243;28;20486;-63
2023/01/16 11:54:54;;;;;;;7.68;2.90;;;3.50;99.90;;;;;;5031209;28;20049;-67
2023/01/16 11:57:43;;;;;;;3.53;0.95;;;3.60;99.90;;;;;;5013829;28;20095;-64
2023/01/16 12:00:15;;;;;;;8.73;2.95;;;3.60;99.90;;;;;;5013336;28;20096;-65
2023/01/16 12:03:31;;;;;;;9.52;3.88;;;3.70;99.90;;;;;;5012397;28;20393;-65
2023/01/16 12:06:03;;;;;;;6.00;1.60;;;3.70;99.90;;;;;;4966964;28;20038;-64
2023/01/16 12:08:44;;;;;;;6.75;2.90;;;3.60;99.90;;;;;;4999040;28;20314;-65
2023/01/16 12:11:29;;;;;;;12.75;3.53;;;3.60;99.90;;;;;;5012252;28;20041;-64
2023/01/16 12:17:18;;;;;;;8.65;2.50;;;3.60;99.90;;;;;;5029443;28;20047;-65
2023/01/16 12:20:08;;;;;;;11.10;3.45;;;3.60;99.90;;;;;;5031805;28;20033;-64
2023/01/16 12:22:39;;;;;;;14.52;4.70;;;3.60;99.90;;;;;;5013784;28;20069;-65
2023/01/16 12:25:19;;;;;;;16.60;6.22;;;3.70;99.90;;;;;;5035698;28;20068;-64
2023/01/16 12:27:58;;;;;;;8.15;3.00;;;3.60;99.90;;;;;;5035936;28;20155;-64
2023/01/16 12:31:25;;;;;;;11.90;3.75;;;3.60;99.90;;;;;;5017083;28;20189;-64
2023/01/16 12:33:54;;;;;;;12.82;3.85;;;3.60;99.90;;;;;;5017303;28;20209;-65
2023/01/16 12:36:51;;;;;;;9.07;3.00;;;3.70;99.90;;;;;;5035483;28;20041;-64
2023/01/16 12:39:48;;;;;;;6.32;2.70;;;3.90;99.90;;;;;;5017121;28;20163;-65
2023/01/16 12:45:52;;;;;;;6.47;2.58;;;3.60;99.90;;;;;;5017005;28;20045;-64
2023/01/16 12:48:50;;;;;;;3.75;2.00;;;3.50;99.90;;;;;;5033799;28;20041;-64
2023/01/16 12:51:26;;;;;;;5.15;2.33;;;4.00;99.90;;;;;;5009940;28;20415;-65
2023/01/16 12:54:04;;;;;;;5.38;2.22;;;3.70;99.90;;;;;;5016567;28;20644;-65
2023/01/16 12:57:09;;;;;;;3.97;1.45;;;3.90;99.90;;;;;;5016187;28;20048;-66
2023/01/16 12:59:38;;;;;;;5.15;2.65;;;3.80;99.90;;;;;;5016299;28;20083;-65
2023/01/16 13:02:39;;;;;;;4.53;2.50;;;3.70;99.90;;;;;;5016143;28;20540;-64
2023/01/16 13:05:12;;;;;;;2.63;1.13;;;4.10;99.90;;;;;;5011028;28;20048;-64
2023/01/16 13:07:45;;;;;;;4.35;2.10;;;3.80;99.90;;;;;;5016837;28;20509;-65
2023/01/16 13:13:24;;;;;;;3.60;2.03;;;3.90;99.90;;;;;;5015224;28;20115;-65
2023/01/16 13:16:19;;;;;;;3.78;2.05;;;3.80;99.90;;;;;;5017067;28;20226;-64
2023/01/16 13:19:12;;;;;;;4.03;1.85;;;4.20;99.90;;;;;;5025140;28;20495;-65
2023/01/16 13:21:59;;;;;;;3.42;1.00;;;4.00;99.90;;;;;;5015673;28;20131;-65
2023/01/16 13:24:38;;;;;;;3.97;1.70;;;3.90;99.90;;;;;;5015519;28;20325;-65
2023/01/16 13:27:11;;;;;;;3.97;1.95;;;4.10;99.90;;;;;;5016175;28;20453;-64
2023/01/16 13:29:59;;;;;;;4.68;1.85;;;3.90;99.90;;;;;;5011697;28;20136;-65
2023/01/16 13:32:41;;;;;;;3.25;2.13;;;4.20;99.90;;;;;;5012138;28;20106;-65
2023/01/16 13:35:32;;;;;;;5.90;2.92;;;4.10;99.90;;;;;;5012052;28;20049;-65
2023/01/16 13:38:39;;;;;;;5.88;2.42;;;3.80;99.90;;;;;;5011884;28;20045;-65
2023/01/16 13:41:19;;;;;;;8.20;2.95;;;4.20;99.90;;;;;;4917022;29;20513;-64
2023/01/16 13:46:40;;;;;;;6.03;2.72;;;3.90;99.90;;;;;;5011603;28;20373;-65
2023/01/16 13:49:09;;;;;;;5.15;2.45;;;3.90;99.90;;;;;;4994069;28;20323;-65
2023/01/16 13:51:43;;;;;;;3.70;1.60;;;4.10;99.90;;;;;;5011613;28;20084;-66
2023/01/16 13:54:17;;;;;;;2.50;1.52;;;4.20;99.90;;;;;;5011171;28;20052;-65
2023/01/16 13:56:55;;;;;;;2.10;1.55;;;4.20;99.90;;;;;;4995186;28;20095;-65
2023/01/16 13:59:42;;;;;;;5.35;2.42;;;3.90;99.90;;;;;;5009842;28;20057;-66
2023/01/16 14:02:39;;;;;;;4.18;2.08;;;4.20;99.90;;;;;;5011852;28;20037;-64
2023/01/16 14:05:08;;;;;;;4.88;1.55;;;4.00;99.90;;;;;;4992583;28;20037;-65
2023/01/16 14:10:45;;;;;;;5.93;2.22;;;4.00;99.90;;;;;;5011094;28;20383;-65
2023/01/16 14:13:29;;;;;;;5.57;2.40;;;4.10;99.90;;;;;;5011366;28;20442;-65
2023/01/16 14:18:56;;;;;;;4.78;2.35;;;4.20;99.90;;;;;;5009782;28;20045;-67
2023/01/16 14:21:37;;;;;;;3.53;1.85;;;4.20;99.90;;;;;;5010798;28;20045;-65
2023/01/16 14:24:09;;;;;;;2.72;1.98;;;4.10;99.90;;;;;;4994038;28;20515;-66
2023/01/16 14:26:51;;;;;;;5.63;2.10;;;4.00;99.90;;;;;;5012595;28;20071;-66
2023/01/16 14:29:24;;;;;;;5.13;2.38;;;4.20;99.90;;;;;;4994782;28;20450;-66